Airfield :
LOGIN :

Register | Disclaimer

   EN    FR    IT 

 










Legend :    VFR   Marginal VFR   IFR   Intensive IFR   Very Intensive IFR
Visi :
Ceiling :
>= 8 km
>= 3000ft
5 to 8 km
1000 to 3000 ft
1500m to 5 km
500 to 1000 ft
800 to 1500m
200 to 500 ft
< 800m
< 200 ft
Symbols :   Thunderstorms  Fog  Heavy snow  Heavy precipitations  Wind > 20 kt
SIGMETs :     Misc.  Thunderstorms  Icing  Turbulence  Mountain Waves  Volcanic Ashes







- Airport Elevation : 242 ft
- IATA code : DUB


EIDW - Dublin

CURRENT METAR :
  • 221700Z 26011KT 210V290 9999 FEW020 BKN220 10/05 Q1023 NOSIG

EXPIRED METARs :
  • 221630Z 24007KT 200V280 9999 FEW022 BKN250 10/05 Q1023 NOSIG
  • 221600Z 25007KT 170V290 9999 FEW015 SCT060 BKN250 10/06 Q1023 NOSIG
  • 221530Z 26010KT 230V290 9999 FEW015 SCT022 BKN060 10/07 Q1022 NOSIG
  • 221500Z 24007KT 200V280 9999 -DZ FEW010 BKN045 10/07 Q1022 NOSIG
  • 221430Z 27012KT 8000 -DZ FEW010 SCT015 BKN030 09/07 Q1022 NOSIG

TAF TAF EIDW
Valid from the 22 at 12:00 until the 23 at 12:00 UTC


221100Z 2212/2312 23015KT 9999 SCT015 BKN020
TEMPO 2212/2215 24017G27KT -RA BKN012
BECMG 2214/2216 27014KT
BECMG 2219/2221 26009KT
BECMG 2308/2310 30005KT
No reported NOTAMs for that airfield.



MET'MAP, your aeronautical weather chart ! - Copyright ORBIFLY December 2007 - Disclaimer

ORBIFLY MET'MAP TEAM :

Programming & Development : Alexandra Zaïnal
Concept & Development : Baudouin d'Aumeries
Co-Development & Prog : Marc-Olivier Méhu
Technical & hardware support : Manuel Goepfert

Contact : metmap@orbifly.com




SOURCES & CREDITS :

   NOAA